EDDP/LEJ METAR and TAF weather

Enter ICAO airport designator
Station Type Date Time Source
EDDP METAR 2019/06/24 23:20 UTC NOAA

EDDP 242320Z 13008KT 090V150 CAVOK 22/13 Q1022 NOSIG


Station Type Date Time Source
EDDP Decoded METAR 2019/06/24 23:20 UTC NOAA

Leipzig-Schkeuditz, Germany (EDDP) 51-25N 012-14E 149M
Jun 24, 2019 - 07:20 PM EDT / 2019.06.24 2320 UTC
Wind: from the SE (130 degrees) at 9 MPH (8 KT) (direction variable):0
Visibility: greater than 7 mile(s):0
Temperature: 71 F (22 C)
Dew Point: 55 F (13 C)
Relative Humidity: 56%
Pressure (altimeter): 30.18 in. Hg (1022 hPa)
ob: EDDP 242320Z 13008KT 090V150 CAVOK 22/13 Q1022 NOSIG
cycle: 23

Station Type Date Time Source
EDDP TAF 2019/06/24 18:27 UTC NOAA

TAF EDDP 241700Z 2418/2518 09007KT CAVOK

Example: see airport list